createdAt,value
2019-03-21T00:04:59.132Z,28.77
2019-03-21T00:10:45.542Z,28.90
2019-03-21T00:15:50.514Z,28.00
2019-03-21T00:20:55.285Z,29.98
2019-03-21T00:26:00.268Z,33.45
2019-03-21T00:31:05.062Z,34.23
2019-03-21T00:36:09.811Z,32.48
2019-03-21T00:41:14.538Z,32.45
2019-03-21T00:46:19.260Z,31.80
2019-03-21T00:51:24.062Z,30.85
2019-03-21T00:56:28.766Z,35.63
2019-03-21T01:01:33.583Z,35.92
2019-03-21T01:06:38.323Z,36.10
2019-03-21T01:11:43.076Z,33.30
2019-03-21T01:16:47.803Z,32.42
2019-03-21T01:21:52.547Z,34.78
2019-03-21T01:26:57.296Z,36.13
2019-03-21T01:32:02.043Z,38.10
2019-03-21T01:37:06.761Z,34.50
2019-03-21T01:42:11.491Z,34.63
2019-03-21T01:47:16.190Z,34.60
2019-03-21T01:52:20.945Z,36.10
2019-03-21T01:57:25.769Z,35.30
2019-03-21T02:02:30.490Z,36.03
2019-03-21T02:07:35.215Z,32.35
2019-03-21T02:12:39.938Z,41.58
2019-03-21T02:17:44.661Z,39.05
2019-03-21T02:22:49.519Z,37.40
2019-03-21T02:27:54.303Z,40.10
2019-03-21T02:33:05.300Z,39.88
2019-03-21T02:38:10.071Z,39.27
2019-03-21T02:43:13.992Z,36.77
2019-03-21T02:48:18.749Z,39.38
2019-03-21T02:53:23.471Z,37.03
2019-03-21T02:58:28.228Z,39.92
2019-03-21T03:03:32.960Z,39.40
2019-03-21T03:08:37.739Z,37.20
2019-03-21T03:13:43.562Z,39.23
2019-03-21T03:18:48.302Z,38.50
2019-03-21T03:23:53.142Z,40.05
2019-03-21T03:28:57.921Z,39.53
2019-03-21T03:34:02.665Z,43.38
2019-03-21T03:39:08.850Z,37.10
2019-03-21T03:44:13.641Z,44.98
2019-03-21T03:49:18.372Z,38.73
2019-03-21T03:54:23.237Z,38.70
2019-03-21T03:59:27.945Z,42.33
2019-03-21T04:04:32.826Z,44.50
2019-03-21T04:09:37.557Z,39.63
2019-03-21T04:14:42.420Z,41.98
2019-03-21T04:19:47.139Z,42.08
2019-03-21T04:24:51.921Z,43.58
2019-03-21T04:29:56.681Z,43.58
2019-03-21T04:35:01.764Z,40.45
2019-03-21T04:40:07.146Z,39.50
2019-03-21T04:45:14.754Z,41.50
2019-03-21T04:50:22.162Z,43.25
2019-03-21T04:55:26.867Z,45.33
2019-03-21T05:00:34.433Z,43.80
2019-03-21T05:05:39.146Z,42.75
2019-03-21T05:10:43.891Z,44.85
2019-03-21T05:15:48.637Z,43.30
2019-03-21T05:20:53.356Z,48.80
2019-03-21T05:26:09.390Z,42.78
2019-03-21T05:31:17.744Z,48.10
2019-03-21T05:36:22.577Z,43.70
2019-03-21T05:41:27.290Z,49.38
2019-03-21T05:46:32.519Z,44.58
2019-03-21T05:51:37.252Z,44.20
2019-03-21T05:56:41.979Z,45.03
2019-03-21T06:01:46.806Z,44.10
2019-03-21T06:07:06.281Z,45.80
2019-03-21T06:12:11.074Z,45.10
2019-03-21T06:17:15.826Z,49.50
2019-03-21T06:22:52.456Z,45.60
2019-03-21T06:27:57.396Z,46.60
2019-03-21T06:33:02.147Z,43.58
2019-03-21T06:38:06.879Z,47.48
2019-03-21T06:43:11.618Z,49.75
2019-03-21T06:48:16.422Z,45.95
2019-03-21T06:53:21.256Z,42.62
2019-03-21T06:58:26.013Z,49.67
2019-03-21T07:03:33.003Z,42.73
2019-03-21T07:08:37.493Z,42.15
2019-03-21T07:13:42.215Z,42.55
2019-03-21T07:18:46.982Z,41.45
2019-03-21T07:23:51.741Z,41.42
2019-03-21T07:28:56.701Z,42.35
2019-03-21T07:34:01.807Z,42.00
2019-03-21T07:39:08.493Z,41.25
2019-03-21T07:44:13.306Z,40.98
2019-03-21T07:49:18.094Z,41.70
2019-03-21T07:54:23.015Z,40.15
2019-03-21T07:59:27.726Z,44.58
2019-03-21T08:04:32.455Z,45.45
2019-03-21T08:09:37.260Z,41.80
2019-03-21T08:14:42.189Z,37.88
2019-03-21T08:19:47.122Z,40.00
2019-03-21T08:24:51.855Z,41.40
2019-03-21T08:29:56.615Z,37.85
2019-03-21T08:35:01.414Z,37.10
2019-03-21T08:40:07.483Z,42.05
2019-03-21T08:45:12.234Z,37.98
2019-03-21T08:50:16.980Z,39.70
2019-03-21T08:55:21.760Z,37.38
2019-03-21T09:00:34.175Z,38.00
2019-03-21T09:05:33.096Z,40.17
2019-03-21T09:10:37.913Z,39.10
2019-03-21T09:15:42.755Z,39.95
2019-03-21T09:20:47.550Z,41.02
2019-03-21T09:25:52.297Z,36.55
2019-03-21T09:30:57.099Z,42.93
2019-03-21T09:36:01.917Z,42.50
2019-03-21T09:41:06.672Z,38.88
2019-03-21T09:46:11.448Z,37.00
2019-03-21T09:51:16.223Z,37.45
2019-03-21T09:56:21.004Z,41.58
2019-03-21T10:01:25.786Z,41.35
2019-03-21T10:06:30.495Z,40.55
2019-03-21T10:11:34.488Z,40.90
2019-03-21T10:16:38.470Z,36.90
2019-03-21T10:21:43.544Z,36.45
2019-03-21T10:26:47.862Z,36.85
2019-03-21T10:31:52.586Z,33.05
2019-03-21T10:36:57.308Z,31.65
2019-03-21T10:42:02.080Z,28.00
2019-03-21T10:47:06.895Z,28.75
2019-03-21T10:52:11.755Z,28.15
2019-03-21T10:57:16.486Z,27.55
2019-03-21T11:02:21.306Z,27.87
2019-03-21T11:07:24.263Z,27.93
2019-03-21T11:12:29.007Z,27.80
2019-03-21T11:17:33.731Z,26.90
2019-03-21T11:22:38.470Z,26.33
2019-03-21T11:27:43.263Z,24.85
2019-03-21T11:32:48.007Z,26.20
2019-03-21T11:37:52.761Z,25.08
2019-03-21T11:42:57.647Z,25.25
2019-03-21T11:48:02.438Z,23.92
2019-03-21T11:53:07.205Z,24.70
2019-03-21T11:58:11.937Z,22.02
2019-03-21T12:03:16.648Z,24.90
2019-03-21T12:08:21.394Z,24.40
2019-03-21T12:13:26.168Z,23.40
2019-03-21T12:18:30.942Z,24.85
2019-03-21T12:23:35.709Z,24.02
2019-03-21T12:28:39.748Z,25.32
2019-03-21T12:33:44.500Z,25.90
2019-03-21T12:38:49.306Z,25.25
2019-03-21T12:43:54.113Z,26.70
2019-03-21T12:48:58.859Z,26.75
2019-03-21T12:54:03.661Z,26.00
2019-03-21T12:59:08.468Z,24.57
2019-03-21T13:04:13.268Z,24.43
2019-03-21T13:09:18.088Z,24.05
2019-03-21T13:14:22.808Z,21.55
2019-03-21T13:19:27.560Z,23.07
2019-03-21T13:24:32.333Z,21.80
2019-03-21T13:29:37.090Z,23.70
2019-03-21T13:34:41.889Z,26.05
2019-03-21T13:39:46.686Z,25.97
2019-03-21T13:44:51.420Z,25.85
2019-03-21T13:49:56.135Z,24.18
2019-03-21T13:55:00.903Z,24.77
2019-03-21T14:00:06.776Z,25.35
2019-03-21T14:05:11.701Z,24.50
2019-03-21T14:10:16.508Z,23.95
2019-03-21T14:15:21.345Z,24.07
2019-03-21T14:20:26.152Z,27.05
2019-03-21T14:25:30.966Z,24.27
2019-03-21T14:30:35.736Z,23.57
2019-03-21T14:35:40.504Z,22.15
2019-03-21T14:40:45.219Z,23.77
2019-03-21T14:45:49.934Z,22.40
2019-03-21T14:50:54.673Z,22.62
2019-03-21T14:55:59.406Z,23.18
2019-03-21T15:01:04.683Z,22.95
2019-03-21T15:06:09.547Z,24.23
2019-03-21T15:11:17.281Z,25.70
2019-03-21T15:16:20.773Z,24.12
2019-03-21T15:21:25.589Z,23.80
2019-03-21T15:26:30.327Z,23.75
2019-03-21T15:31:36.065Z,24.25
2019-03-21T15:36:40.867Z,24.85
2019-03-21T15:41:45.591Z,25.08
2019-03-21T15:46:50.309Z,24.55
2019-03-21T15:51:54.317Z,24.75
2019-03-21T15:56:58.261Z,24.63
2019-03-21T16:02:02.285Z,24.82
2019-03-21T16:07:06.319Z,26.35
2019-03-21T16:12:10.274Z,26.30
2019-03-21T16:17:14.297Z,26.25
2019-03-21T16:22:18.251Z,27.13
2019-03-21T16:27:22.323Z,26.37
2019-03-21T16:32:26.359Z,25.88
2019-03-21T16:37:30.370Z,28.20
2019-03-21T16:42:36.893Z,26.70
2019-03-21T16:47:40.044Z,28.45
2019-03-21T16:52:45.516Z,35.25
2019-03-21T16:57:49.453Z,30.68
2019-03-21T17:02:53.457Z,28.87
2019-03-21T17:08:09.907Z,28.90
2019-03-21T17:13:04.563Z,29.30
2019-03-21T17:18:09.825Z,31.37
2019-03-21T17:23:14.593Z,31.20
2019-03-21T17:28:19.382Z,36.35
2019-03-21T17:33:25.118Z,42.70
2019-03-21T17:38:29.881Z,45.20
2019-03-21T17:43:34.760Z,41.20
2019-03-21T17:48:39.474Z,40.80
2019-03-21T17:53:44.248Z,43.50
2019-03-21T17:58:48.956Z,41.85
2019-03-21T18:03:53.762Z,41.80
2019-03-21T18:08:58.525Z,48.92
2019-03-21T18:14:03.334Z,43.50
2019-03-21T18:19:08.735Z,43.73
2019-03-21T18:24:13.576Z,47.60
2019-03-21T18:29:18.406Z,40.67
2019-03-21T18:34:23.174Z,46.92
2019-03-21T18:39:28.108Z,49.15
2019-03-21T18:44:32.863Z,58.48
2019-03-21T18:49:37.608Z,59.45
2019-03-21T18:54:42.343Z,59.33
2019-03-21T18:59:47.089Z,58.63
2019-03-21T19:04:51.917Z,55.90
2019-03-21T19:09:56.701Z,61.92
2019-03-21T19:15:01.457Z,66.80
2019-03-21T19:20:07.119Z,77.90
2019-03-21T19:25:18.523Z,75.85
2019-03-21T19:30:19.120Z,75.00
2019-03-21T19:35:23.961Z,63.52
